LTFC Airport Information

Runway Information
Runway 05 Length 9843 ft width 148 ft
Elevation 2827 ft Threshold 0 ft Heading 50
Runway 23 Length 9843 ft Width 148 ft
Elevation 2835 ft Threshold 0 ft Heading 230
Airport Frequencies
Type GND Name ISPARTA GN Frequency 121.7 MHZ
Type TWR Name ISPARTA TW Frequency 119.2 MHZ
Airport Navaids
Type VOR-DME Name Isparta Frequency 117500 KHZ
Type NDB Name Isparta Frequency 349 KHZ
Airport Weather Information & NOTAM
ADDS - METARS form results

(1957 UTC 16 July 2018)
 
METAR text: LTFC 161920Z 04006KT CAVOK 23/05 Q1012 RMK RWY23 36005KT 330V040
Conditions at: LTFC (SULEYMAN DEMIREL, TR) observed 1920 UTC 16 July 2018
Temperature: 23.0°C (73°F)
Dewpoint: 5.0°C (41°F) [RH = 31%]
Pressure (altimeter): 29.88 inches Hg (1012.0 mb)
Winds: from the NE (40 degrees) at 7 MPH (6 knots; 3.1 m/s)
Visibility: 6 or more miles (10+ km)
Ceiling: ceiling and visibility are OK
Clouds: unknown
Weather: no significant weather observed at this time